Seiyu Maru — JD3189 — position and weather

sailwx.info

Track history (hours):
 
Tides and Currents Weather Stations Pressure Air Temp Water Temp Dewpoint Dewpoint Depression Visibility Wind Speed Wind Dir Waves Ship Positions

Seiyu Maru

Last reported at 2016-Jul-28 17:33 UTC. Time now 2016-Jul-28 18:26 UTC.
Position N 34°36' E 135°23'.

Length 75 m; draft 4.5 m.

Type: Cargo ship. MMSI: 431002433.

Date/timePositionNaut miles runAvg speedWind from/ knotsBaromVisibWave heightAir tempDewpointWater temp
2016-Jul-28 17:33N 34°36' E 135°23'0 0.0
2016-Jul-28 16:33N 34°36' E 135°23'0 0.1
2016-Jul-28 15:33N 34°36' E 135°23'0 0.0
2016-Jul-28 14:33N 34°36' E 135°23'0 0.0
2016-Jul-28 13:33N 34°36' E 135°23'2 2.4
2016-Jul-28 12:33N 34°36' E 135°20'1211.9
2016-Jul-28 11:33N 34°35' E 135°05'1712.0
2016-Jul-28 10:10N 34°40' E 134°46'8 0.7
2016-Jul-27 23:33N 34°37' E 134°55'8 7.8
2016-Jul-27 22:34N 34°36' E 135°04'9 9.4
2016-Jul-27 21:33N 34°26' E 135°03'1210.3
2016-Jul-27 20:22N 34°15' E 134°59'1011.3
2016-Jul-27 19:30N 34°05' E 135°00'249 9.2
2016-Jul-26 16:33N 34°52' E 139°57'1110.3
2016-Jul-26 15:29N 34°57' E 140°09'2510.4
2016-Jul-26 13:06N 35°13' E 140°32'  
2016-Jul-20 22:19N 36°04' E 140°59'2311.3
2016-Jul-20 20:20N 35°41' E 140°56'1211.2
2016-Jul-20 19:16N 35°31' E 140°48'1312.4
2016-Jul-20 18:12N 35°20' E 140°39'912.4
2016-Jul-20 17:31N 35°14' E 140°32'2311.6
2016-Jul-20 15:33N 34°59' E 140°11'1311.9
2016-Jul-20 14:28N 34°52' E 139°58'1211.2
2016-Jul-20 13:22N 34°51' E 139°43'238 9.6
2016-Jul-19 12:31N 34°07' E 134°59'1010.5
2016-Jul-19 11:33N 34°17' E 134°58'9 9.4
2016-Jul-19 10:33N 34°25' E 135°05'1111.5
2016-Jul-19 09:33N 34°32' E 135°15'9 9.3
2016-Jul-19 08:34N 34°38' E 135°25'0 0.0
2016-Jul-19 07:31N 34°38' E 135°25'0 0.0
2016-Jul-19 04:33N 34°38' E 135°25'0 0.0
2016-Jul-19 03:33N 34°38' E 135°25'0 0.0
2016-Jul-19 02:32N 34°38' E 135°25'0 0.0
2016-Jul-19 01:33N 34°38' E 135°25'0 0.0
2016-Jul-19 00:34N 34°38' E 135°25'1 1.1
2016-Jul-18 23:33N 34°38' E 135°24'3 2.6
2016-Jul-18 22:32N 34°38' E 135°27'0 0.0
2016-Jul-18 21:34N 34°38' E 135°27'0 0.1
2016-Jul-18 20:34N 34°38' E 135°27'0 0.0
2016-Jul-18 19:34N 34°38' E 135°27'0 0.0
2016-Jul-18 18:33N 34°38' E 135°27'  
Track history (hours):
 
Tides and Currents Weather Stations Pressure Air Temp Water Temp Dewpoint Dewpoint Depression Visibility Wind Speed Wind Dir Waves Ship Positions

Seiyu Maru

Last reported at 2016-Jul-28 17:33 UTC. Time now 2016-Jul-28 18:26 UTC.
Position N 34°36' E 135°23'.

Length 75 m; draft 4.5 m.

Type: Cargo ship. MMSI: 431002433.

Date/timePositionNaut miles runAvg speedWind from/ knotsBaromVisibWave heightAir tempDewpointWater temp
2016-Jul-28 17:33N 34°36' E 135°23'0 0.0
2016-Jul-28 16:33N 34°36' E 135°23'0 0.1
2016-Jul-28 15:33N 34°36' E 135°23'0 0.0
2016-Jul-28 14:33N 34°36' E 135°23'0 0.0
2016-Jul-28 13:33N 34°36' E 135°23'2 2.4
2016-Jul-28 12:33N 34°36' E 135°20'1211.9
2016-Jul-28 11:33N 34°35' E 135°05'1712.0
2016-Jul-28 10:10N 34°40' E 134°46'8 0.7
2016-Jul-27 23:33N 34°37' E 134°55'8 7.8
2016-Jul-27 22:34N 34°36' E 135°04'9 9.4
2016-Jul-27 21:33N 34°26' E 135°03'1210.3
2016-Jul-27 20:22N 34°15' E 134°59'1011.3
2016-Jul-27 19:30N 34°05' E 135°00'249 9.2
2016-Jul-26 16:33N 34°52' E 139°57'1110.3
2016-Jul-26 15:29N 34°57' E 140°09'2510.4
2016-Jul-26 13:06N 35°13' E 140°32'  
2016-Jul-20 22:19N 36°04' E 140°59'2311.3
2016-Jul-20 20:20N 35°41' E 140°56'1211.2
2016-Jul-20 19:16N 35°31' E 140°48'1312.4
2016-Jul-20 18:12N 35°20' E 140°39'912.4
2016-Jul-20 17:31N 35°14' E 140°32'2311.6
2016-Jul-20 15:33N 34°59' E 140°11'1311.9
2016-Jul-20 14:28N 34°52' E 139°58'1211.2
2016-Jul-20 13:22N 34°51' E 139°43'238 9.6
2016-Jul-19 12:31N 34°07' E 134°59'1010.5
2016-Jul-19 11:33N 34°17' E 134°58'9 9.4
2016-Jul-19 10:33N 34°25' E 135°05'1111.5
2016-Jul-19 09:33N 34°32' E 135°15'9 9.3
2016-Jul-19 08:34N 34°38' E 135°25'0 0.0
2016-Jul-19 07:31N 34°38' E 135°25'0 0.0
2016-Jul-19 04:33N 34°38' E 135°25'0 0.0
2016-Jul-19 03:33N 34°38' E 135°25'0 0.0
2016-Jul-19 02:32N 34°38' E 135°25'0 0.0
2016-Jul-19 01:33N 34°38' E 135°25'0 0.0
2016-Jul-19 00:34N 34°38' E 135°25'1 1.1
2016-Jul-18 23:33N 34°38' E 135°24'3 2.6
2016-Jul-18 22:32N 34°38' E 135°27'0 0.0
2016-Jul-18 21:34N 34°38' E 135°27'0 0.1
2016-Jul-18 20:34N 34°38' E 135°27'0 0.0
2016-Jul-18 19:34N 34°38' E 135°27'0 0.0
2016-Jul-18 18:33N 34°38' E 135°27'  

Dump ship's entire track history